sensor_id;sensor_type;location;lat;lon;timestamp;temperature;humidity
13652;DHT22;6899;51.546;6.912;2023-04-03T00:00:52;-0.80;99.90
13652;DHT22;6899;51.546;6.912;2023-04-03T00:03:19;-0.80;99.90
13652;DHT22;6899;51.546;6.912;2023-04-03T00:05:46;-0.70;99.90
13652;DHT22;6899;51.546;6.912;2023-04-03T00:08:13;-0.60;99.90
13652;DHT22;6899;51.546;6.912;2023-04-03T00:10:42;-0.40;99.90
13652;DHT22;6899;51.546;6.912;2023-04-03T00:13:09;-0.40;99.90
13652;DHT22;6899;51.546;6.912;2023-04-03T00:15:37;-0.70;99.90
13652;DHT22;6899;51.546;6.912;2023-04-03T00:18:04;-0.80;99.90
13652;DHT22;6899;51.546;6.912;2023-04-03T00:20:32;-0.90;99.90
13652;DHT22;6899;51.546;6.912;2023-04-03T00:22:59;-0.80;99.90
13652;DHT22;6899;51.546;6.912;2023-04-03T00:25:26;-0.90;99.90
13652;DHT22;6899;51.546;6.912;2023-04-03T00:27:55;-0.90;99.90
13652;DHT22;6899;51.546;6.912;2023-04-03T00:30:22;-0.90;99.90
13652;DHT22;6899;51.546;6.912;2023-04-03T00:32:50;-1.10;99.90
13652;DHT22;6899;51.546;6.912;2023-04-03T00:35:18;-1.00;99.90
13652;DHT22;6899;51.546;6.912;2023-04-03T00:37:45;-1.00;99.90
13652;DHT22;6899;51.546;6.912;2023-04-03T00:40:14;-1.00;99.90
13652;DHT22;6899;51.546;6.912;2023-04-03T00:42:43;-1.00;99.90
13652;DHT22;6899;51.546;6.912;2023-04-03T00:45:39;-1.00;99.90
13652;DHT22;6899;51.546;6.912;2023-04-03T00:48:08;-1.00;99.90
13652;DHT22;6899;51.546;6.912;2023-04-03T00:50:39;-1.20;99.90
13652;DHT22;6899;51.546;6.912;2023-04-03T00:53:08;-1.00;99.90
13652;DHT22;6899;51.546;6.912;2023-04-03T00:55:38;-0.90;99.90
13652;DHT22;6899;51.546;6.912;2023-04-03T00:58:10;-0.80;99.90
13652;DHT22;6899;51.546;6.912;2023-04-03T01:00:40;-0.70;99.90
13652;DHT22;6899;51.546;6.912;2023-04-03T01:03:09;-0.70;99.90
13652;DHT22;6899;51.546;6.912;2023-04-03T01:05:36;-0.70;99.90
13652;DHT22;6899;51.546;6.912;2023-04-03T01:08:04;-0.60;99.90
13652;DHT22;6899;51.546;6.912;2023-04-03T01:10:31;-0.60;99.90
13652;DHT22;6899;51.546;6.912;2023-04-03T01:12:59;-0.60;99.90
13652;DHT22;6899;51.546;6.912;2023-04-03T01:15:27;-0.60;99.90
13652;DHT22;6899;51.546;6.912;2023-04-03T01:17:57;-0.70;99.90
13652;DHT22;6899;51.546;6.912;2023-04-03T01:23:53;-0.60;99.90
13652;DHT22;6899;51.546;6.912;2023-04-03T01:26:24;-0.60;99.90
13652;DHT22;6899;51.546;6.912;2023-04-03T01:28:53;-0.50;99.90
13652;DHT22;6899;51.546;6.912;2023-04-03T01:31:24;-0.30;99.90
13652;DHT22;6899;51.546;6.912;2023-04-03T01:33:54;-0.30;99.90
13652;DHT22;6899;51.546;6.912;2023-04-03T01:36:23;-0.30;99.90
13652;DHT22;6899;51.546;6.912;2023-04-03T01:38:51;-0.30;99.90
13652;DHT22;6899;51.546;6.912;2023-04-03T01:41:18;-0.10;99.90
13652;DHT22;6899;51.546;6.912;2023-04-03T01:43:49;-0.20;99.90
13652;DHT22;6899;51.546;6.912;2023-04-03T01:46:16;-0.30;99.90
13652;DHT22;6899;51.546;6.912;2023-04-03T01:48:43;-0.20;99.90
13652;DHT22;6899;51.546;6.912;2023-04-03T01:51:11;-0.10;99.90
13652;DHT22;6899;51.546;6.912;2023-04-03T01:53:38;0.00;99.90
13652;DHT22;6899;51.546;6.912;2023-04-03T01:56:05;0.10;99.90
13652;DHT22;6899;51.546;6.912;2023-04-03T01:58:32;0.20;99.90
13652;DHT22;6899;51.546;6.912;2023-04-03T02:01:00;0.20;99.90
13652;DHT22;6899;51.546;6.912;2023-04-03T02:03:27;0.20;99.90
13652;DHT22;6899;51.546;6.912;2023-04-03T02:05:53;0.10;99.90
13652;DHT22;6899;51.546;6.912;2023-04-03T02:08:22;0.20;99.90
13652;DHT22;6899;51.546;6.912;2023-04-03T02:10:49;0.20;99.90
13652;DHT22;6899;51.546;6.912;2023-04-03T02:13:16;0.20;99.90
13652;DHT22;6899;51.546;6.912;2023-04-03T02:15:43;0.20;99.90
13652;DHT22;6899;51.546;6.912;2023-04-03T02:18:11;0.10;99.90
13652;DHT22;6899;51.546;6.912;2023-04-03T02:20:40;0.20;99.90
13652;DHT22;6899;51.546;6.912;2023-04-03T02:23:07;0.10;99.90
13652;DHT22;6899;51.546;6.912;2023-04-03T02:25:35;0.10;99.90
13652;DHT22;6899;51.546;6.912;2023-04-03T02:28:02;0.20;99.90
13652;DHT22;6899;51.546;6.912;2023-04-03T02:30:29;0.10;99.90
13652;DHT22;6899;51.546;6.912;2023-04-03T02:32:56;0.10;99.90
13652;DHT22;6899;51.546;6.912;2023-04-03T02:35:23;0.20;99.90
13652;DHT22;6899;51.546;6.912;2023-04-03T02:37:49;0.10;99.90
13652;DHT22;6899;51.546;6.912;2023-04-03T02:40:16;0.00;99.90
13652;DHT22;6899;51.546;6.912;2023-04-03T02:42:45;-0.10;99.90
13652;DHT22;6899;51.546;6.912;2023-04-03T02:45:11;0.00;99.90
13652;DHT22;6899;51.546;6.912;2023-04-03T02:47:38;0.10;99.90
13652;DHT22;6899;51.546;6.912;2023-04-03T02:50:05;0.20;99.90
13652;DHT22;6899;51.546;6.912;2023-04-03T02:52:32;0.10;99.90
13652;DHT22;6899;51.546;6.912;2023-04-03T02:54:59;0.10;99.90
13652;DHT22;6899;51.546;6.912;2023-04-03T02:57:26;0.10;99.90
13652;DHT22;6899;51.546;6.912;2023-04-03T02:59:54;0.20;99.90
13652;DHT22;6899;51.546;6.912;2023-04-03T03:02:21;0.20;99.90
13652;DHT22;6899;51.546;6.912;2023-04-03T03:04:48;0.30;99.90
13652;DHT22;6899;51.546;6.912;2023-04-03T03:07:15;0.40;99.90
13652;DHT22;6899;51.546;6.912;2023-04-03T03:09:42;0.30;99.90
13652;DHT22;6899;51.546;6.912;2023-04-03T03:12:08;0.40;99.90
13652;DHT22;6899;51.546;6.912;2023-04-03T03:14:35;0.30;99.90
13652;DHT22;6899;51.546;6.912;2023-04-03T03:17:04;0.40;99.90
13652;DHT22;6899;51.546;6.912;2023-04-03T03:19:31;0.40;99.90
13652;DHT22;6899;51.546;6.912;2023-04-03T03:21:58;0.20;99.90
13652;DHT22;6899;51.546;6.912;2023-04-03T03:24:24;0.30;99.90
13652;DHT22;6899;51.546;6.912;2023-04-03T03:26:51;0.30;99.90
13652;DHT22;6899;51.546;6.912;2023-04-03T03:29:18;0.20;99.90
13652;DHT22;6899;51.546;6.912;2023-04-03T03:31:45;0.30;99.90
13652;DHT22;6899;51.546;6.912;2023-04-03T03:34:13;0.20;99.90
13652;DHT22;6899;51.546;6.912;2023-04-03T03:36:40;0.10;99.90
13652;DHT22;6899;51.546;6.912;2023-04-03T03:39:07;-0.10;99.90
13652;DHT22;6899;51.546;6.912;2023-04-03T03:41:35;-0.10;99.90
13652;DHT22;6899;51.546;6.912;2023-04-03T03:44:02;-0.10;99.90
13652;DHT22;6899;51.546;6.912;2023-04-03T03:46:28;0.00;99.90
13652;DHT22;6899;51.546;6.912;2023-04-03T03:48:55;-0.10;99.90
13652;DHT22;6899;51.546;6.912;2023-04-03T03:51:23;0.10;99.90
13652;DHT22;6899;51.546;6.912;2023-04-03T03:53:50;0.10;99.90
13652;DHT22;6899;51.546;6.912;2023-04-03T03:56:17;0.00;99.90
13652;DHT22;6899;51.546;6.912;2023-04-03T03:58:44;0.10;99.90
13652;DHT22;6899;51.546;6.912;2023-04-03T04:01:11;0.10;99.90
13652;DHT22;6899;51.546;6.912;2023-04-03T04:03:38;0.10;99.90
13652;DHT22;6899;51.546;6.912;2023-04-03T04:06:05;0.10;99.90
13652;DHT22;6899;51.546;6.912;2023-04-03T04:08:33;0.20;99.90
13652;DHT22;6899;51.546;6.912;2023-04-03T04:11:00;0.20;99.90
13652;DHT22;6899;51.546;6.912;2023-04-03T04:13:27;0.20;99.90
13652;DHT22;6899;51.546;6.912;2023-04-03T04:15:54;0.10;99.90
13652;DHT22;6899;51.546;6.912;2023-04-03T04:18:20;0.00;99.90
13652;DHT22;6899;51.546;6.912;2023-04-03T04:20:48;-0.10;99.90
13652;DHT22;6899;51.546;6.912;2023-04-03T04:23:16;-0.10;99.90
13652;DHT22;6899;51.546;6.912;2023-04-03T04:25:46;-0.20;99.90
13652;DHT22;6899;51.546;6.912;2023-04-03T04:28:13;-0.30;99.90
13652;DHT22;6899;51.546;6.912;2023-04-03T04:30:40;-0.20;99.90
13652;DHT22;6899;51.546;6.912;2023-04-03T04:33:07;-0.20;99.90
13652;DHT22;6899;51.546;6.912;2023-04-03T04:35:34;-0.20;99.90
13652;DHT22;6899;51.546;6.912;2023-04-03T04:38:01;-0.10;99.90
13652;DHT22;6899;51.546;6.912;2023-04-03T04:40:28;-0.20;99.90
13652;DHT22;6899;51.546;6.912;2023-04-03T04:42:57;-0.30;99.90
13652;DHT22;6899;51.546;6.912;2023-04-03T04:45:24;-0.30;99.90
13652;DHT22;6899;51.546;6.912;2023-04-03T04:47:50;-0.30;99.90
13652;DHT22;6899;51.546;6.912;2023-04-03T04:50:18;-0.20;99.90
13652;DHT22;6899;51.546;6.912;2023-04-03T04:52:45;-0.40;99.90
13652;DHT22;6899;51.546;6.912;2023-04-03T04:55:12;-0.50;99.90
13652;DHT22;6899;51.546;6.912;2023-04-03T04:57:38;-0.50;99.90
13652;DHT22;6899;51.546;6.912;2023-04-03T05:00:08;-0.40;99.90
13652;DHT22;6899;51.546;6.912;2023-04-03T05:02:35;-0.40;99.90
13652;DHT22;6899;51.546;6.912;2023-04-03T05:05:02;-0.40;99.90
13652;DHT22;6899;51.546;6.912;2023-04-03T05:07:29;-0.50;99.90
13652;DHT22;6899;51.546;6.912;2023-04-03T05:09:56;-0.50;99.90
13652;DHT22;6899;51.546;6.912;2023-04-03T05:12:23;-0.50;99.90
13652;DHT22;6899;51.546;6.912;2023-04-03T05:14:50;-0.70;99.90
13652;DHT22;6899;51.546;6.912;2023-04-03T05:17:18;-0.60;99.90
13652;DHT22;6899;51.546;6.912;2023-04-03T05:19:45;-0.50;99.90
13652;DHT22;6899;51.546;6.912;2023-04-03T05:22:12;-0.60;99.90
13652;DHT22;6899;51.546;6.912;2023-04-03T05:24:39;-0.50;99.90
13652;DHT22;6899;51.546;6.912;2023-04-03T05:27:06;-0.50;99.90
13652;DHT22;6899;51.546;6.912;2023-04-03T05:29:33;-0.50;99.90
13652;DHT22;6899;51.546;6.912;2023-04-03T05:32:00;-0.50;99.90
13652;DHT22;6899;51.546;6.912;2023-04-03T05:34:28;-0.50;99.90
13652;DHT22;6899;51.546;6.912;2023-04-03T05:36:55;-0.30;99.90
13652;DHT22;6899;51.546;6.912;2023-04-03T05:39:21;-0.20;99.90
13652;DHT22;6899;51.546;6.912;2023-04-03T05:41:49;-0.20;99.90
13652;DHT22;6899;51.546;6.912;2023-04-03T05:44:16;0.00;99.90
13652;DHT22;6899;51.546;6.912;2023-04-03T05:46:43;0.00;99.90
13652;DHT22;6899;51.546;6.912;2023-04-03T05:49:10;0.20;99.90
13652;DHT22;6899;51.546;6.912;2023-04-03T05:51:38;0.20;99.90
13652;DHT22;6899;51.546;6.912;2023-04-03T05:54:09;0.30;99.90
13652;DHT22;6899;51.546;6.912;2023-04-03T05:56:38;0.40;99.90
13652;DHT22;6899;51.546;6.912;2023-04-03T05:59:05;0.90;99.90
13652;DHT22;6899;51.546;6.912;2023-04-03T06:01:32;1.80;99.90
13652;DHT22;6899;51.546;6.912;2023-04-03T06:03:59;2.50;99.90
13652;DHT22;6899;51.546;6.912;2023-04-03T06:06:44;3.10;99.90
13652;DHT22;6899;51.546;6.912;2023-04-03T06:09:11;3.70;99.90
13652;DHT22;6899;51.546;6.912;2023-04-03T06:11:38;4.00;99.90
13652;DHT22;6899;51.546;6.912;2023-04-03T06:14:05;4.60;99.90
13652;DHT22;6899;51.546;6.912;2023-04-03T06:16:33;5.10;99.90
13652;DHT22;6899;51.546;6.912;2023-04-03T06:19:01;5.20;99.90
13652;DHT22;6899;51.546;6.912;2023-04-03T06:21:28;5.10;99.90
13652;DHT22;6899;51.546;6.912;2023-04-03T06:23:57;5.70;99.90
13652;DHT22;6899;51.546;6.912;2023-04-03T06:26:23;5.90;99.90
13652;DHT22;6899;51.546;6.912;2023-04-03T06:28:50;5.90;99.90
13652;DHT22;6899;51.546;6.912;2023-04-03T06:31:17;5.60;99.90
13652;DHT22;6899;51.546;6.912;2023-04-03T06:33:44;5.50;99.90
13652;DHT22;6899;51.546;6.912;2023-04-03T06:36:11;5.70;99.90
13652;DHT22;6899;51.546;6.912;2023-04-03T06:38:38;5.80;99.90
13652;DHT22;6899;51.546;6.912;2023-04-03T06:41:07;5.90;99.90
13652;DHT22;6899;51.546;6.912;2023-04-03T06:43:33;5.90;99.90
13652;DHT22;6899;51.546;6.912;2023-04-03T06:46:00;5.60;99.90
13652;DHT22;6899;51.546;6.912;2023-04-03T06:48:27;5.60;99.90
13652;DHT22;6899;51.546;6.912;2023-04-03T06:50:54;5.50;99.90
13652;DHT22;6899;51.546;6.912;2023-04-03T06:53:21;6.20;99.90
13652;DHT22;6899;51.546;6.912;2023-04-03T06:55:55;6.10;99.90
13652;DHT22;6899;51.546;6.912;2023-04-03T06:58:23;6.00;99.90
13652;DHT22;6899;51.546;6.912;2023-04-03T07:00:50;5.90;99.90
13652;DHT22;6899;51.546;6.912;2023-04-03T07:03:17;6.20;99.90
13652;DHT22;6899;51.546;6.912;2023-04-03T07:05:44;6.40;99.90
13652;DHT22;6899;51.546;6.912;2023-04-03T07:08:11;7.00;99.90
13652;DHT22;6899;51.546;6.912;2023-04-03T07:10:38;6.80;99.90
13652;DHT22;6899;51.546;6.912;2023-04-03T07:13:05;6.60;99.90
13652;DHT22;6899;51.546;6.912;2023-04-03T07:15:33;6.60;99.90
13652;DHT22;6899;51.546;6.912;2023-04-03T07:18:02;6.90;99.90
13652;DHT22;6899;51.546;6.912;2023-04-03T07:20:30;6.90;99.90
13652;DHT22;6899;51.546;6.912;2023-04-03T07:22:56;7.00;97.10
13652;DHT22;6899;51.546;6.912;2023-04-03T07:25:23;6.70;98.40
13652;DHT22;6899;51.546;6.912;2023-04-03T07:27:50;6.60;99.70
13652;DHT22;6899;51.546;6.912;2023-04-03T07:30:22;7.20;99.90
13652;DHT22;6899;51.546;6.912;2023-04-03T07:32:50;7.40;95.80
13652;DHT22;6899;51.546;6.912;2023-04-03T07:35:17;7.40;95.40
13652;DHT22;6899;51.546;6.912;2023-04-03T07:37:44;7.50;97.20
13652;DHT22;6899;51.546;6.912;2023-04-03T07:40:11;7.40;96.10
13652;DHT22;6899;51.546;6.912;2023-04-03T07:42:39;7.40;96.60
13652;DHT22;6899;51.546;6.912;2023-04-03T07:45:06;7.20;95.20
13652;DHT22;6899;51.546;6.912;2023-04-03T07:47:33;7.30;95.90
13652;DHT22;6899;51.546;6.912;2023-04-03T07:50:01;7.20;96.60
13652;DHT22;6899;51.546;6.912;2023-04-03T07:52:28;7.40;95.00
13652;DHT22;6899;51.546;6.912;2023-04-03T07:54:55;7.30;95.60
13652;DHT22;6899;51.546;6.912;2023-04-03T07:57:22;7.40;93.50
13652;DHT22;6899;51.546;6.912;2023-04-03T07:59:49;7.00;92.10
13652;DHT22;6899;51.546;6.912;2023-04-03T08:02:16;6.90;94.40
13652;DHT22;6899;51.546;6.912;2023-04-03T08:04:42;6.90;93.60
13652;DHT22;6899;51.546;6.912;2023-04-03T08:07:11;6.80;95.10
13652;DHT22;6899;51.546;6.912;2023-04-03T08:09:37;6.50;95.60
13652;DHT22;6899;51.546;6.912;2023-04-03T08:12:04;6.60;94.00
13652;DHT22;6899;51.546;6.912;2023-04-03T08:14:32;6.70;94.10
13652;DHT22;6899;51.546;6.912;2023-04-03T08:17:00;6.90;94.80
13652;DHT22;6899;51.546;6.912;2023-04-03T08:19:31;6.50;90.10
13652;DHT22;6899;51.546;6.912;2023-04-03T08:21:58;6.60;90.80
13652;DHT22;6899;51.546;6.912;2023-04-03T08:24:27;6.70;91.10
13652;DHT22;6899;51.546;6.912;2023-04-03T08:26:54;6.90;96.10
13652;DHT22;6899;51.546;6.912;2023-04-03T08:29:21;7.30;90.70
13652;DHT22;6899;51.546;6.912;2023-04-03T08:31:48;7.50;87.30
13652;DHT22;6899;51.546;6.912;2023-04-03T08:34:16;7.50;82.30
13652;DHT22;6899;51.546;6.912;2023-04-03T08:36:43;7.50;84.30
13652;DHT22;6899;51.546;6.912;2023-04-03T08:39:10;7.30;81.90
13652;DHT22;6899;51.546;6.912;2023-04-03T08:41:42;7.60;83.60
13652;DHT22;6899;51.546;6.912;2023-04-03T08:44:17;7.60;80.80
13652;DHT22;6899;51.546;6.912;2023-04-03T08:47:01;7.80;74.90
13652;DHT22;6899;51.546;6.912;2023-04-03T08:49:32;7.50;72.00
13652;DHT22;6899;51.546;6.912;2023-04-03T08:52:02;7.60;71.10
13652;DHT22;6899;51.546;6.912;2023-04-03T08:54:33;7.30;71.20
13652;DHT22;6899;51.546;6.912;2023-04-03T08:57:04;7.10;71.70
13652;DHT22;6899;51.546;6.912;2023-04-03T08:59:34;6.90;68.70
13652;DHT22;6899;51.546;6.912;2023-04-03T09:02:04;7.10;70.40
13652;DHT22;6899;51.546;6.912;2023-04-03T09:04:40;7.30;72.60
13652;DHT22;6899;51.546;6.912;2023-04-03T09:07:12;7.20;70.00
13652;DHT22;6899;51.546;6.912;2023-04-03T09:09:42;6.90;72.00
13652;DHT22;6899;51.546;6.912;2023-04-03T09:12:18;7.30;73.20
13652;DHT22;6899;51.546;6.912;2023-04-03T09:14:57;7.40;69.20
13652;DHT22;6899;51.546;6.912;2023-04-03T09:17:35;7.30;68.40
13652;DHT22;6899;51.546;6.912;2023-04-03T09:20:13;7.50;69.60
13652;DHT22;6899;51.546;6.912;2023-04-03T09:22:43;7.40;66.80
13652;DHT22;6899;51.546;6.912;2023-04-03T09:25:13;7.60;66.00
13652;DHT22;6899;51.546;6.912;2023-04-03T09:27:42;7.90;66.10
13652;DHT22;6899;51.546;6.912;2023-04-03T09:30:13;7.90;64.70
13652;DHT22;6899;51.546;6.912;2023-04-03T09:32:43;8.00;67.10
13652;DHT22;6899;51.546;6.912;2023-04-03T09:35:17;8.10;67.20
13652;DHT22;6899;51.546;6.912;2023-04-03T09:37:47;8.00;66.90
13652;DHT22;6899;51.546;6.912;2023-04-03T09:40:33;8.10;62.50
13652;DHT22;6899;51.546;6.912;2023-04-03T09:43:22;8.00;63.10
13652;DHT22;6899;51.546;6.912;2023-04-03T09:45:50;8.10;66.20
13652;DHT22;6899;51.546;6.912;2023-04-03T09:48:19;7.90;65.10
13652;DHT22;6899;51.546;6.912;2023-04-03T09:50:54;8.00;59.10
13652;DHT22;6899;51.546;6.912;2023-04-03T09:53:33;8.00;59.00
13652;DHT22;6899;51.546;6.912;2023-04-03T09:56:02;7.80;53.90
13652;DHT22;6899;51.546;6.912;2023-04-03T09:58:32;7.40;53.70
13652;DHT22;6899;51.546;6.912;2023-04-03T10:01:02;7.70;56.50
13652;DHT22;6899;51.546;6.912;2023-04-03T10:03:31;7.80;56.20
13652;DHT22;6899;51.546;6.912;2023-04-03T10:05:59;8.00;53.20
13652;DHT22;6899;51.546;6.912;2023-04-03T10:08:29;7.90;53.20
13652;DHT22;6899;51.546;6.912;2023-04-03T10:11:11;8.10;54.80
13652;DHT22;6899;51.546;6.912;2023-04-03T10:13:54;8.40;55.70
13652;DHT22;6899;51.546;6.912;2023-04-03T10:16:32;8.40;52.90
13652;DHT22;6899;51.546;6.912;2023-04-03T10:19:29;8.30;53.60
13652;DHT22;6899;51.546;6.912;2023-04-03T10:21:59;8.20;52.50
13652;DHT22;6899;51.546;6.912;2023-04-03T10:24:36;8.10;54.50
13652;DHT22;6899;51.546;6.912;2023-04-03T10:27:08;8.50;53.30
13652;DHT22;6899;51.546;6.912;2023-04-03T10:29:42;8.60;53.10
13652;DHT22;6899;51.546;6.912;2023-04-03T10:35:25;8.40;51.30
13652;DHT22;6899;51.546;6.912;2023-04-03T10:38:02;7.90;52.50
13652;DHT22;6899;51.546;6.912;2023-04-03T10:40:34;8.10;54.00
13652;DHT22;6899;51.546;6.912;2023-04-03T10:43:09;7.80;53.10
13652;DHT22;6899;51.546;6.912;2023-04-03T10:45:53;8.00;53.60
13652;DHT22;6899;51.546;6.912;2023-04-03T10:48:40;8.20;54.10
13652;DHT22;6899;51.546;6.912;2023-04-03T10:51:23;8.20;52.90
13652;DHT22;6899;51.546;6.912;2023-04-03T10:53:56;8.20;52.90
13652;DHT22;6899;51.546;6.912;2023-04-03T10:56:31;8.20;53.80
13652;DHT22;6899;51.546;6.912;2023-04-03T10:59:05;8.40;53.30
13652;DHT22;6899;51.546;6.912;2023-04-03T11:01:39;8.40;53.60
13652;DHT22;6899;51.546;6.912;2023-04-03T11:04:09;8.50;53.50
13652;DHT22;6899;51.546;6.912;2023-04-03T11:06:39;8.40;52.40
13652;DHT22;6899;51.546;6.912;2023-04-03T11:09:15;8.60;52.70
13652;DHT22;6899;51.546;6.912;2023-04-03T11:11:43;8.40;53.50
13652;DHT22;6899;51.546;6.912;2023-04-03T11:14:17;8.30;53.00
13652;DHT22;6899;51.546;6.912;2023-04-03T11:16:54;8.60;53.40
13652;DHT22;6899;51.546;6.912;2023-04-03T11:19:29;8.50;52.10
13652;DHT22;6899;51.546;6.912;2023-04-03T11:22:04;8.30;52.80
13652;DHT22;6899;51.546;6.912;2023-04-03T11:24:33;8.40;52.40
13652;DHT22;6899;51.546;6.912;2023-04-03T11:27:04;8.70;53.80
13652;DHT22;6899;51.546;6.912;2023-04-03T11:29:35;8.90;53.90
13652;DHT22;6899;51.546;6.912;2023-04-03T11:32:17;8.80;52.10
13652;DHT22;6899;51.546;6.912;2023-04-03T11:34:49;8.80;53.20
13652;DHT22;6899;51.546;6.912;2023-04-03T11:37:24;9.20;54.10
13652;DHT22;6899;51.546;6.912;2023-04-03T11:39:54;9.20;52.00
13652;DHT22;6899;51.546;6.912;2023-04-03T11:42:28;8.90;51.60
13652;DHT22;6899;51.546;6.912;2023-04-03T11:45:21;9.20;53.90
13652;DHT22;6899;51.546;6.912;2023-04-03T11:47:53;9.20;52.70
13652;DHT22;6899;51.546;6.912;2023-04-03T11:50:40;9.50;52.90
13652;DHT22;6899;51.546;6.912;2023-04-03T11:53:28;9.70;52.50
13652;DHT22;6899;51.546;6.912;2023-04-03T11:55:58;9.90;52.40
13652;DHT22;6899;51.546;6.912;2023-04-03T11:58:26;10.10;52.00
13652;DHT22;6899;51.546;6.912;2023-04-03T12:01:08;10.30;51.90
13652;DHT22;6899;51.546;6.912;2023-04-03T12:04:08;9.60;49.40
13652;DHT22;6899;51.546;6.912;2023-04-03T12:10:01;9.30;50.50
13652;DHT22;6899;51.546;6.912;2023-04-03T12:12:37;9.40;51.20
13652;DHT22;6899;51.546;6.912;2023-04-03T12:15:20;9.40;50.40
13652;DHT22;6899;51.546;6.912;2023-04-03T12:17:47;9.40;53.10
13652;DHT22;6899;51.546;6.912;2023-04-03T12:23:31;9.60;50.90
13652;DHT22;6899;51.546;6.912;2023-04-03T12:26:06;9.70;50.90
13652;DHT22;6899;51.546;6.912;2023-04-03T12:28:45;9.60;50.30
13652;DHT22;6899;51.546;6.912;2023-04-03T12:31:14;9.80;49.30
13652;DHT22;6899;51.546;6.912;2023-04-03T12:34:04;9.80;49.20
13652;DHT22;6899;51.546;6.912;2023-04-03T12:36:39;10.00;49.60
13652;DHT22;6899;51.546;6.912;2023-04-03T12:39:42;10.30;49.90
13652;DHT22;6899;51.546;6.912;2023-04-03T12:42:29;10.40;49.50
13652;DHT22;6899;51.546;6.912;2023-04-03T12:45:03;10.30;48.50
13652;DHT22;6899;51.546;6.912;2023-04-03T12:47:36;10.30;49.10
13652;DHT22;6899;51.546;6.912;2023-04-03T12:50:18;10.20;48.10
13652;DHT22;6899;51.546;6.912;2023-04-03T12:52:51;9.90;48.20
13652;DHT22;6899;51.546;6.912;2023-04-03T12:55:22;10.10;49.80
13652;DHT22;6899;51.546;6.912;2023-04-03T12:57:49;10.20;49.90
13652;DHT22;6899;51.546;6.912;2023-04-03T13:00:25;10.40;50.00
13652;DHT22;6899;51.546;6.912;2023-04-03T13:02:53;10.20;49.40
13652;DHT22;6899;51.546;6.912;2023-04-03T13:05:22;10.70;49.90
13652;DHT22;6899;51.546;6.912;2023-04-03T13:07:52;11.00;49.20
13652;DHT22;6899;51.546;6.912;2023-04-03T13:10:19;11.00;48.00
13652;DHT22;6899;51.546;6.912;2023-04-03T13:12:51;10.80;48.70
13652;DHT22;6899;51.546;6.912;2023-04-03T13:15:20;10.70;47.70
13652;DHT22;6899;51.546;6.912;2023-04-03T13:17:49;10.20;48.50
13652;DHT22;6899;51.546;6.912;2023-04-03T13:20:21;10.50;49.70
13652;DHT22;6899;51.546;6.912;2023-04-03T13:22:53;10.90;50.00
13652;DHT22;6899;51.546;6.912;2023-04-03T13:25:23;10.60;47.10
13652;DHT22;6899;51.546;6.912;2023-04-03T13:27:52;10.40;48.80
13652;DHT22;6899;51.546;6.912;2023-04-03T13:30:27;10.30;48.40
13652;DHT22;6899;51.546;6.912;2023-04-03T13:32:56;10.40;48.00
13652;DHT22;6899;51.546;6.912;2023-04-03T13:35:34;10.70;48.50
13652;DHT22;6899;51.546;6.912;2023-04-03T13:38:05;10.70;48.40
13652;DHT22;6899;51.546;6.912;2023-04-03T13:40:33;10.30;48.10
13652;DHT22;6899;51.546;6.912;2023-04-03T13:43:14;10.00;47.70
13652;DHT22;6899;51.546;6.912;2023-04-03T13:45:58;10.10;49.30
13652;DHT22;6899;51.546;6.912;2023-04-03T13:48:26;9.90;48.40
13652;DHT22;6899;51.546;6.912;2023-04-03T13:50:59;10.00;49.60
13652;DHT22;6899;51.546;6.912;2023-04-03T13:53:28;10.50;50.10
13652;DHT22;6899;51.546;6.912;2023-04-03T13:55:59;10.70;50.50
13652;DHT22;6899;51.546;6.912;2023-04-03T13:58:29;10.80;49.10
13652;DHT22;6899;51.546;6.912;2023-04-03T14:01:00;11.00;50.80
13652;DHT22;6899;51.546;6.912;2023-04-03T14:03:31;11.20;47.70
13652;DHT22;6899;51.546;6.912;2023-04-03T14:06:08;10.90;47.80
13652;DHT22;6899;51.546;6.912;2023-04-03T14:08:36;10.60;48.40
13652;DHT22;6899;51.546;6.912;2023-04-03T14:11:03;10.50;48.40
13652;DHT22;6899;51.546;6.912;2023-04-03T14:13:32;10.70;48.50
13652;DHT22;6899;51.546;6.912;2023-04-03T14:16:02;10.70;48.60
13652;DHT22;6899;51.546;6.912;2023-04-03T14:18:31;10.70;49.10
13652;DHT22;6899;51.546;6.912;2023-04-03T14:20:58;10.70;48.80
13652;DHT22;6899;51.546;6.912;2023-04-03T14:23:25;10.60;48.10
13652;DHT22;6899;51.546;6.912;2023-04-03T14:25:52;10.30;49.10
13652;DHT22;6899;51.546;6.912;2023-04-03T14:28:21;10.30;49.50
13652;DHT22;6899;51.546;6.912;2023-04-03T14:30:51;10.80;49.80
13652;DHT22;6899;51.546;6.912;2023-04-03T14:33:20;11.20;48.50
13652;DHT22;6899;51.546;6.912;2023-04-03T14:35:48;11.10;48.00
13652;DHT22;6899;51.546;6.912;2023-04-03T14:38:23;10.40;48.70
13652;DHT22;6899;51.546;6.912;2023-04-03T14:40:51;10.10;50.00
13652;DHT22;6899;51.546;6.912;2023-04-03T14:43:18;10.60;50.70
13652;DHT22;6899;51.546;6.912;2023-04-03T14:45:46;10.50;48.80
13652;DHT22;6899;51.546;6.912;2023-04-03T14:48:18;10.60;49.50
13652;DHT22;6899;51.546;6.912;2023-04-03T14:50:46;10.40;48.10
13652;DHT22;6899;51.546;6.912;2023-04-03T14:53:14;10.50;48.90
13652;DHT22;6899;51.546;6.912;2023-04-03T14:55:43;10.60;49.60
13652;DHT22;6899;51.546;6.912;2023-04-03T14:58:13;10.70;49.20
13652;DHT22;6899;51.546;6.912;2023-04-03T15:00:42;10.90;49.90
13652;DHT22;6899;51.546;6.912;2023-04-03T15:03:14;10.80;48.70
13652;DHT22;6899;51.546;6.912;2023-04-03T15:05:44;10.90;48.80
13652;DHT22;6899;51.546;6.912;2023-04-03T15:08:18;10.60;48.70
13652;DHT22;6899;51.546;6.912;2023-04-03T15:10:50;10.30;49.50
13652;DHT22;6899;51.546;6.912;2023-04-03T15:13:21;10.40;49.80
13652;DHT22;6899;51.546;6.912;2023-04-03T15:16:01;10.40;49.40
13652;DHT22;6899;51.546;6.912;2023-04-03T15:18:35;10.40;49.80
13652;DHT22;6899;51.546;6.912;2023-04-03T15:21:06;10.50;50.40
13652;DHT22;6899;51.546;6.912;2023-04-03T15:23:33;10.60;49.70
13652;DHT22;6899;51.546;6.912;2023-04-03T15:26:00;10.50;49.10
13652;DHT22;6899;51.546;6.912;2023-04-03T15:28:30;10.50;49.60
13652;DHT22;6899;51.546;6.912;2023-04-03T15:31:08;10.10;48.90
13652;DHT22;6899;51.546;6.912;2023-04-03T15:33:40;10.00;50.20
13652;DHT22;6899;51.546;6.912;2023-04-03T15:36:08;10.00;50.90
13652;DHT22;6899;51.546;6.912;2023-04-03T15:38:40;10.00;50.20
13652;DHT22;6899;51.546;6.912;2023-04-03T15:41:06;10.10;52.00
13652;DHT22;6899;51.546;6.912;2023-04-03T15:43:33;10.00;51.40
13652;DHT22;6899;51.546;6.912;2023-04-03T15:46:01;10.20;51.60
13652;DHT22;6899;51.546;6.912;2023-04-03T15:48:29;10.00;50.20
13652;DHT22;6899;51.546;6.912;2023-04-03T15:50:59;10.30;51.10
13652;DHT22;6899;51.546;6.912;2023-04-03T15:53:26;10.20;51.70
13652;DHT22;6899;51.546;6.912;2023-04-03T15:55:53;10.20;50.80
13652;DHT22;6899;51.546;6.912;2023-04-03T15:58:20;9.90;50.30
13652;DHT22;6899;51.546;6.912;2023-04-03T16:00:47;10.00;51.10
13652;DHT22;6899;51.546;6.912;2023-04-03T16:03:17;9.90;51.30
13652;DHT22;6899;51.546;6.912;2023-04-03T16:05:44;9.70;51.50
13652;DHT22;6899;51.546;6.912;2023-04-03T16:08:13;9.60;51.20
13652;DHT22;6899;51.546;6.912;2023-04-03T16:10:41;9.40;51.80
13652;DHT22;6899;51.546;6.912;2023-04-03T16:13:10;9.30;51.30
13652;DHT22;6899;51.546;6.912;2023-04-03T16:15:38;9.20;51.90
13652;DHT22;6899;51.546;6.912;2023-04-03T16:18:05;9.30;52.60
13652;DHT22;6899;51.546;6.912;2023-04-03T16:20:32;9.50;52.10
13652;DHT22;6899;51.546;6.912;2023-04-03T16:23:01;9.60;51.70
13652;DHT22;6899;51.546;6.912;2023-04-03T16:25:29;9.30;51.50